createdAt,value
2017-09-17T00:00:40.965Z,967.35
2017-09-17T00:01:41.011Z,967.34
2017-09-17T00:02:41.122Z,967.35
2017-09-17T00:03:41.108Z,967.31
2017-09-17T00:04:41.156Z,967.27
2017-09-17T00:05:41.204Z,967.28
2017-09-17T00:06:41.267Z,967.27
2017-09-17T00:07:41.377Z,967.20
2017-09-17T00:08:41.345Z,967.21
2017-09-17T00:09:41.393Z,967.20
2017-09-17T00:10:41.440Z,967.20
2017-09-17T00:11:41.486Z,967.16
2017-09-17T00:12:41.601Z,967.20
2017-09-17T00:13:41.583Z,967.16
2017-09-17T00:14:41.627Z,967.16
2017-09-17T00:15:41.705Z,967.14
2017-09-17T00:16:41.723Z,967.17
2017-09-17T00:17:41.845Z,967.12
2017-09-17T00:18:41.816Z,967.16
2017-09-17T00:19:41.862Z,967.19
2017-09-17T00:20:41.912Z,967.16
2017-09-17T00:21:41.961Z,967.16
2017-09-17T00:22:42.072Z,967.13
2017-09-17T00:23:42.117Z,967.13
2017-09-17T00:24:42.100Z,967.14
2017-09-17T00:25:42.149Z,967.14
2017-09-17T00:26:42.193Z,967.11
2017-09-17T00:27:42.245Z,967.15
2017-09-17T00:28:42.354Z,967.11
2017-09-17T00:29:42.337Z,967.13
2017-09-17T00:30:42.395Z,967.14
2017-09-17T00:31:42.433Z,967.18
2017-09-17T00:32:42.480Z,967.19
2017-09-17T00:33:42.589Z,967.16
2017-09-17T00:34:42.575Z,967.20
2017-09-17T00:35:42.621Z,967.20
2017-09-17T00:36:42.670Z,967.22
2017-09-17T00:37:42.718Z,967.24
2017-09-17T00:38:42.826Z,967.23
2017-09-17T00:39:42.812Z,967.20
2017-09-17T00:40:42.856Z,967.20
2017-09-17T00:41:42.908Z,967.20
2017-09-17T00:42:42.954Z,967.19
2017-09-17T00:43:43.064Z,967.19
2017-09-17T00:44:43.049Z,967.18
2017-09-17T00:45:43.093Z,967.19
2017-09-17T00:46:43.142Z,967.16
2017-09-17T00:47:43.191Z,967.17
2017-09-17T00:48:43.305Z,967.16
2017-09-17T00:49:43.282Z,967.18
2017-09-17T00:50:43.328Z,967.13
2017-09-17T00:51:43.380Z,967.23
2017-09-17T00:52:43.426Z,967.19
2017-09-17T00:53:43.552Z,967.22
2017-09-17T00:54:43.521Z,967.24
2017-09-17T00:55:43.570Z,967.20
2017-09-17T00:56:43.617Z,967.22
2017-09-17T00:57:43.663Z,967.23
2017-09-17T00:58:43.776Z,967.22
2017-09-17T00:59:43.822Z,967.22
2017-09-17T01:00:43.805Z,967.21
2017-09-17T01:01:43.854Z,967.22
2017-09-17T01:02:43.901Z,967.16
2017-09-17T01:03:44.016Z,967.16
2017-09-17T01:04:43.994Z,967.19
2017-09-17T01:05:44.046Z,967.18
2017-09-17T01:06:44.088Z,967.19
2017-09-17T01:07:44.136Z,967.14
2017-09-17T01:08:44.259Z,967.17
2017-09-17T01:09:44.234Z,967.21
2017-09-17T01:10:44.277Z,967.19
2017-09-17T01:11:44.326Z,967.19
2017-09-17T01:12:44.376Z,967.17
2017-09-17T01:13:44.493Z,967.21
2017-09-17T01:14:44.466Z,967.19
2017-09-17T01:15:44.517Z,967.17
2017-09-17T01:16:44.571Z,967.21
2017-09-17T01:17:44.613Z,967.22
2017-09-17T01:18:44.726Z,967.23
2017-09-17T01:19:44.705Z,967.20
2017-09-17T01:20:44.752Z,967.23
2017-09-17T01:21:44.801Z,967.21
2017-09-17T01:22:44.848Z,967.20
2017-09-17T01:23:44.982Z,967.20
2017-09-17T01:24:44.943Z,967.20
2017-09-17T01:25:44.987Z,967.21
2017-09-17T01:26:45.036Z,967.26
2017-09-17T01:27:45.085Z,967.20
2017-09-17T01:28:45.208Z,967.23
2017-09-17T01:29:45.181Z,967.19
2017-09-17T01:30:45.224Z,967.23
2017-09-17T01:31:45.277Z,967.21
2017-09-17T01:32:45.326Z,967.24
2017-09-17T01:33:45.435Z,967.25
2017-09-17T01:34:45.479Z,967.23
2017-09-17T01:35:45.462Z,967.20
2017-09-17T01:36:45.510Z,967.22
2017-09-17T01:37:45.557Z,967.23
2017-09-17T01:38:45.603Z,967.20
2017-09-17T01:39:45.719Z,967.23
2017-09-17T01:40:45.699Z,967.22
2017-09-17T01:41:45.746Z,967.26
2017-09-17T01:42:45.794Z,967.25
2017-09-17T01:43:45.841Z,967.26
2017-09-17T01:44:45.980Z,967.28
2017-09-17T01:45:45.935Z,967.26
2017-09-17T01:46:45.982Z,967.29
2017-09-17T01:47:46.029Z,967.26
2017-09-17T01:48:46.078Z,967.27
2017-09-17T01:49:46.189Z,967.25
2017-09-17T01:50:46.168Z,967.23
2017-09-17T01:51:46.220Z,967.23
2017-09-17T01:52:46.263Z,967.25
2017-09-17T01:53:46.313Z,967.28
2017-09-17T01:54:46.431Z,967.30
2017-09-17T01:55:46.411Z,967.26
2017-09-17T01:56:46.452Z,967.28
2017-09-17T01:57:46.501Z,967.29
2017-09-17T01:58:46.555Z,967.30
2017-09-17T01:59:46.666Z,967.27
2017-09-17T02:00:46.643Z,967.29
2017-09-17T02:01:46.692Z,967.31
2017-09-17T02:02:46.736Z,967.29
2017-09-17T02:03:46.785Z,967.23
2017-09-17T02:04:46.894Z,967.23
2017-09-17T02:05:46.881Z,967.25
2017-09-17T02:06:46.925Z,967.25
2017-09-17T02:07:46.973Z,967.28
2017-09-17T02:08:47.019Z,967.28
2017-09-17T02:09:47.151Z,967.24
2017-09-17T02:10:47.118Z,967.24
2017-09-17T02:11:47.162Z,967.24
2017-09-17T02:12:47.208Z,967.21
2017-09-17T02:13:47.260Z,967.22
2017-09-17T02:14:47.370Z,967.19
2017-09-17T02:15:47.411Z,967.16
2017-09-17T02:16:47.421Z,967.16
2017-09-17T02:17:47.445Z,967.21
2017-09-17T02:18:47.492Z,967.21
2017-09-17T02:19:47.539Z,967.24
2017-09-17T02:20:47.654Z,967.24
2017-09-17T02:21:47.634Z,967.26
2017-09-17T02:22:47.681Z,967.23
2017-09-17T02:23:47.729Z,967.26
2017-09-17T02:24:47.779Z,967.29
2017-09-17T02:25:47.896Z,967.28
2017-09-17T02:26:47.869Z,967.26
2017-09-17T02:27:47.915Z,967.28
2017-09-17T02:28:47.964Z,967.27
2017-09-17T02:29:48.007Z,967.26
2017-09-17T02:30:48.123Z,967.26
2017-09-17T02:31:48.164Z,967.26
2017-09-17T02:32:48.147Z,967.26
2017-09-17T02:33:48.194Z,967.28
2017-09-17T02:34:48.240Z,967.28
2017-09-17T02:35:48.293Z,967.29
2017-09-17T02:36:48.405Z,967.32
2017-09-17T02:37:48.385Z,967.28
2017-09-17T02:38:48.434Z,967.28
2017-09-17T02:39:48.481Z,967.26
2017-09-17T02:40:48.526Z,967.27
2017-09-17T02:41:48.636Z,967.30
2017-09-17T02:42:48.617Z,967.24
2017-09-17T02:43:48.668Z,967.21
2017-09-17T02:44:48.716Z,967.25
2017-09-17T02:45:48.761Z,967.22
2017-09-17T02:46:48.874Z,967.24
2017-09-17T02:47:48.860Z,967.19
2017-09-17T02:48:48.900Z,967.23
2017-09-17T02:49:48.949Z,967.22
2017-09-17T02:50:48.997Z,967.19
2017-09-17T02:51:49.127Z,967.17
2017-09-17T02:52:49.091Z,967.21
2017-09-17T02:53:49.137Z,967.15
2017-09-17T02:54:49.184Z,967.18
2017-09-17T02:55:49.230Z,967.08
2017-09-17T02:56:49.343Z,967.13
2017-09-17T02:57:49.329Z,967.12
2017-09-17T02:58:49.372Z,967.09
2017-09-17T02:59:49.418Z,967.08
2017-09-17T03:00:49.469Z,967.12
2017-09-17T03:01:49.586Z,967.09
2017-09-17T03:02:49.558Z,967.09
2017-09-17T03:03:49.607Z,967.08
2017-09-17T03:04:49.656Z,967.11
2017-09-17T03:05:49.697Z,967.11
2017-09-17T03:06:49.825Z,967.14
2017-09-17T03:07:49.793Z,967.08
2017-09-17T03:08:49.847Z,967.14
2017-09-17T03:09:49.888Z,967.13
2017-09-17T03:10:49.932Z,967.13
2017-09-17T03:11:50.047Z,967.13
2017-09-17T03:12:50.030Z,967.15
2017-09-17T03:13:50.077Z,967.18
2017-09-17T03:14:50.122Z,967.12
2017-09-17T03:15:50.170Z,967.15
2017-09-17T03:16:50.276Z,967.16
2017-09-17T03:17:50.328Z,967.17
2017-09-17T03:18:50.310Z,967.16
2017-09-17T03:19:50.357Z,967.14
2017-09-17T03:20:50.404Z,967.15
2017-09-17T03:21:50.457Z,967.12
2017-09-17T03:22:50.564Z,967.13
2017-09-17T03:23:50.543Z,967.12
2017-09-17T03:24:50.593Z,967.10
2017-09-17T03:25:50.638Z,967.10
2017-09-17T03:26:50.683Z,967.10
2017-09-17T03:27:50.798Z,967.11
2017-09-17T03:28:50.781Z,967.08
2017-09-17T03:29:50.824Z,967.12
2017-09-17T03:30:50.873Z,967.09
2017-09-17T03:31:50.920Z,967.09
2017-09-17T03:32:51.032Z,967.10
2017-09-17T03:33:51.016Z,967.09
2017-09-17T03:34:51.064Z,967.09
2017-09-17T03:35:51.105Z,967.07
2017-09-17T03:36:51.153Z,967.05
2017-09-17T03:37:51.275Z,967.09
2017-09-17T03:38:51.247Z,967.08
2017-09-17T03:39:51.296Z,967.07
2017-09-17T03:40:51.341Z,967.06
2017-09-17T03:41:51.389Z,967.05
2017-09-17T03:42:51.526Z,967.07
2017-09-17T03:43:51.485Z,967.11
2017-09-17T03:44:51.531Z,967.08
2017-09-17T03:45:51.583Z,967.13
2017-09-17T03:46:51.629Z,967.11
2017-09-17T03:47:51.740Z,967.11
2017-09-17T03:48:51.724Z,967.14
2017-09-17T03:49:51.766Z,967.16
2017-09-17T03:50:51.813Z,967.15
2017-09-17T03:51:51.861Z,967.13
2017-09-17T03:52:51.980Z,967.15
2017-09-17T03:53:51.954Z,967.15
2017-09-17T03:54:52.000Z,967.15
2017-09-17T03:55:52.047Z,967.15
2017-09-17T03:56:52.102Z,967.17
2017-09-17T03:57:52.206Z,967.15
2017-09-17T03:58:52.247Z,967.14
2017-09-17T03:59:52.235Z,967.16
2017-09-17T04:00:52.280Z,967.16
2017-09-17T04:01:52.331Z,967.18
2017-09-17T04:02:52.377Z,967.19
2017-09-17T04:03:52.487Z,967.22
2017-09-17T04:04:52.467Z,967.23
2017-09-17T04:05:52.514Z,967.22
2017-09-17T04:06:52.563Z,967.23
2017-09-17T04:07:52.611Z,967.26
2017-09-17T04:08:52.722Z,967.28
2017-09-17T04:09:52.705Z,967.27
2017-09-17T04:10:52.751Z,967.28
2017-09-17T04:11:52.795Z,967.31
2017-09-17T04:12:52.847Z,967.34
2017-09-17T04:13:52.962Z,967.36
2017-09-17T04:14:53.004Z,967.36
2017-09-17T04:15:52.989Z,967.37
2017-09-17T04:16:53.035Z,967.39
2017-09-17T04:17:53.081Z,967.38
2017-09-17T04:18:53.210Z,967.40
2017-09-17T04:19:53.171Z,967.41
2017-09-17T04:20:53.223Z,967.41
2017-09-17T04:21:53.271Z,967.43
2017-09-17T04:22:53.314Z,967.45
2017-09-17T04:23:53.434Z,967.42
2017-09-17T04:24:53.409Z,967.42
2017-09-17T04:25:53.458Z,967.45
2017-09-17T04:26:53.505Z,967.44
2017-09-17T04:27:53.548Z,967.43
2017-09-17T04:28:53.661Z,967.44
2017-09-17T04:29:53.710Z,967.47
2017-09-17T04:30:53.690Z,967.45
2017-09-17T04:31:53.739Z,967.48
2017-09-17T04:32:53.791Z,967.48
2017-09-17T04:33:53.835Z,967.50
2017-09-17T04:34:53.945Z,967.59
2017-09-17T04:35:53.928Z,967.56
2017-09-17T04:36:53.974Z,967.56
2017-09-17T04:37:54.023Z,967.58
2017-09-17T04:38:54.067Z,967.58
2017-09-17T04:39:54.180Z,967.58
2017-09-17T04:40:54.162Z,967.60
2017-09-17T04:41:54.211Z,967.63
2017-09-17T04:42:54.255Z,967.65
2017-09-17T04:43:54.309Z,967.61
2017-09-17T04:44:54.415Z,967.61
2017-09-17T04:45:54.399Z,967.63
2017-09-17T04:46:54.446Z,967.61
2017-09-17T04:47:54.490Z,967.62
2017-09-17T04:48:54.539Z,967.63
2017-09-17T04:49:54.655Z,967.62
2017-09-17T04:50:54.629Z,967.61
2017-09-17T04:51:54.683Z,967.63
2017-09-17T04:52:54.728Z,967.66
2017-09-17T04:53:54.774Z,967.68
2017-09-17T04:54:54.883Z,967.64
2017-09-17T04:55:54.869Z,967.66
2017-09-17T04:56:54.913Z,967.69
2017-09-17T04:57:54.964Z,967.71
2017-09-17T04:58:55.008Z,967.68
2017-09-17T04:59:55.121Z,967.68
2017-09-17T05:00:55.103Z,967.72
2017-09-17T05:01:55.150Z,967.73
2017-09-17T05:02:55.194Z,967.76
2017-09-17T05:03:55.245Z,967.76
2017-09-17T05:04:55.355Z,967.78
2017-09-17T05:05:55.339Z,967.76
2017-09-17T05:06:55.385Z,967.77
2017-09-17T05:07:55.433Z,967.78
2017-09-17T05:08:55.481Z,967.78
2017-09-17T05:09:55.590Z,967.83
2017-09-17T05:10:55.573Z,967.82
2017-09-17T05:11:55.623Z,967.82
2017-09-17T05:12:55.672Z,967.81
2017-09-17T05:13:55.712Z,967.87
2017-09-17T05:14:55.833Z,967.83
2017-09-17T05:15:55.808Z,967.84
2017-09-17T05:16:55.857Z,967.85
2017-09-17T05:17:55.901Z,967.84
2017-09-17T05:18:55.951Z,967.87
2017-09-17T05:19:56.063Z,967.86
2017-09-17T05:20:56.106Z,967.88
2017-09-17T05:21:56.812Z,967.88
2017-09-17T05:22:56.139Z,967.87
2017-09-17T05:23:56.188Z,967.90
2017-09-17T05:24:56.231Z,967.90
2017-09-17T05:25:56.367Z,967.90
2017-09-17T05:26:56.329Z,967.94
2017-09-17T05:27:56.376Z,967.90
2017-09-17T05:28:56.428Z,967.94
2017-09-17T05:29:56.468Z,967.91
2017-09-17T05:30:56.597Z,967.91
2017-09-17T05:31:56.565Z,967.95
2017-09-17T05:32:56.610Z,967.97
2017-09-17T05:33:56.656Z,967.95
2017-09-17T05:34:56.703Z,967.97
2017-09-17T05:35:56.813Z,967.96
2017-09-17T05:36:56.863Z,967.93
2017-09-17T05:37:56.842Z,967.97
2017-09-17T05:38:56.891Z,967.94
2017-09-17T05:39:56.940Z,967.96
2017-09-17T05:40:56.987Z,967.99
2017-09-17T05:41:57.104Z,968.01
2017-09-17T05:42:57.079Z,968.04
2017-09-17T05:43:57.129Z,968.04
2017-09-17T05:44:57.175Z,968.04
2017-09-17T05:45:57.219Z,968.05
2017-09-17T05:46:57.334Z,968.07
2017-09-17T05:47:57.317Z,968.08
2017-09-17T05:48:57.368Z,968.08
2017-09-17T05:49:57.410Z,968.06
2017-09-17T05:50:57.458Z,968.06
2017-09-17T05:51:57.574Z,968.06
2017-09-17T05:52:57.555Z,968.07
2017-09-17T05:53:57.598Z,968.03
2017-09-17T05:54:57.649Z,968.04
2017-09-17T05:55:57.691Z,968.03
2017-09-17T05:56:57.806Z,968.01
2017-09-17T05:57:57.789Z,968.04
2017-09-17T05:58:57.836Z,968.04
2017-09-17T05:59:57.881Z,968.07
2017-09-17T06:00:57.931Z,968.12
2017-09-17T06:01:58.041Z,968.10
2017-09-17T06:02:58.024Z,968.09
2017-09-17T06:03:58.075Z,968.13
2017-09-17T06:04:58.118Z,968.15
2017-09-17T06:05:58.166Z,968.14
2017-09-17T06:06:58.279Z,968.16
2017-09-17T06:07:58.258Z,968.16
2017-09-17T06:08:58.306Z,968.20
2017-09-17T06:09:58.354Z,968.16
2017-09-17T06:10:58.402Z,968.19
2017-09-17T06:11:58.510Z,968.19
2017-09-17T06:12:58.496Z,968.17
2017-09-17T06:13:58.540Z,968.19
2017-09-17T06:14:58.589Z,968.19
2017-09-17T06:15:58.637Z,968.20
2017-09-17T06:16:58.748Z,968.23
2017-09-17T06:17:58.736Z,968.23
2017-09-17T06:18:58.779Z,968.20
2017-09-17T06:19:58.826Z,968.23
2017-09-17T06:20:58.876Z,968.22
2017-09-17T06:21:58.993Z,968.23
2017-09-17T06:22:58.968Z,968.22
2017-09-17T06:23:59.017Z,968.24
2017-09-17T06:24:59.065Z,968.27
2017-09-17T06:25:59.112Z,968.28
2017-09-17T06:26:59.247Z,968.27
2017-09-17T06:27:59.206Z,968.26
2017-09-17T06:28:59.257Z,968.27
2017-09-17T06:29:59.300Z,968.33
2017-09-17T06:30:59.365Z,968.33
2017-09-17T06:31:59.468Z,968.30
2017-09-17T06:32:59.445Z,968.33
2017-09-17T06:33:59.492Z,968.33
2017-09-17T06:34:59.538Z,968.36
2017-09-17T06:35:59.586Z,968.38
2017-09-17T06:36:59.719Z,968.34
2017-09-17T06:37:59.683Z,968.38
2017-09-17T06:38:59.727Z,968.33
2017-09-17T06:39:59.773Z,968.31
2017-09-17T06:40:59.824Z,968.34
2017-09-17T06:41:59.940Z,968.37
2017-09-17T06:42:59.920Z,968.37
2017-09-17T06:43:59.966Z,968.38
2017-09-17T06:45:00.016Z,968.38
2017-09-17T06:46:00.059Z,968.36
2017-09-17T06:47:00.190Z,968.38
2017-09-17T06:48:00.160Z,968.39
2017-09-17T06:49:00.204Z,968.39
2017-09-17T06:50:00.253Z,968.39
2017-09-17T06:51:00.299Z,968.39
2017-09-17T06:52:00.420Z,968.41
2017-09-17T06:53:00.400Z,968.40
2017-09-17T06:54:00.441Z,968.39
2017-09-17T06:55:00.490Z,968.38
2017-09-17T06:56:00.540Z,968.39
2017-09-17T06:57:00.670Z,968.39
2017-09-17T06:58:00.632Z,968.39
2017-09-17T06:59:00.681Z,968.39
2017-09-17T07:00:00.730Z,968.42
2017-09-17T07:01:00.782Z,968.40
2017-09-17T07:02:00.900Z,968.38
2017-09-17T07:03:00.875Z,968.39
2017-09-17T07:04:00.921Z,968.42
2017-09-17T07:05:00.970Z,968.42
2017-09-17T07:06:01.017Z,968.45
2017-09-17T07:07:01.130Z,968.41
2017-09-17T07:08:01.179Z,968.44
2017-09-17T07:09:01.365Z,968.44
2017-09-17T07:10:01.214Z,968.43
2017-09-17T07:11:01.256Z,968.47
2017-09-17T07:12:01.303Z,968.44
2017-09-17T07:13:01.418Z,968.45
2017-09-17T07:14:01.402Z,968.50
2017-09-17T07:15:01.451Z,968.47
2017-09-17T07:16:01.499Z,968.50
2017-09-17T07:17:01.764Z,968.49
2017-09-17T07:18:01.663Z,968.53
2017-09-17T07:19:01.852Z,968.53
2017-09-17T07:20:01.693Z,968.55
2017-09-17T07:21:01.738Z,968.54
2017-09-17T07:22:01.786Z,968.53
2017-09-17T07:23:01.920Z,968.52
2017-09-17T07:24:02.096Z,968.54
2017-09-17T07:25:02.074Z,968.53
2017-09-17T07:26:01.993Z,968.54
2017-09-17T07:27:02.026Z,968.54
2017-09-17T07:28:02.152Z,968.54
2017-09-17T07:29:02.127Z,968.54
2017-09-17T07:30:02.486Z,968.58
2017-09-17T07:31:02.222Z,968.59
2017-09-17T07:32:02.311Z,968.61
2017-09-17T07:33:02.582Z,968.62
2017-09-17T07:34:02.720Z,968.62
2017-09-17T07:35:02.630Z,968.60
2017-09-17T07:36:02.495Z,968.61
2017-09-17T07:37:02.710Z,968.59
2017-09-17T07:38:02.767Z,968.57
2017-09-17T07:39:02.673Z,968.59
2017-09-17T07:40:02.656Z,968.58
2017-09-17T07:41:02.707Z,968.55
2017-09-17T07:42:02.759Z,968.60
2017-09-17T07:43:03.081Z,968.59
2017-09-17T07:44:02.918Z,968.62
2017-09-17T07:45:02.989Z,968.58
2017-09-17T07:46:02.963Z,968.56
2017-09-17T07:47:02.999Z,968.60
2017-09-17T07:48:03.046Z,968.60
2017-09-17T07:49:03.161Z,968.63
2017-09-17T07:50:03.289Z,968.61
2017-09-17T07:51:03.262Z,968.63
2017-09-17T07:52:03.241Z,968.67
2017-09-17T07:53:03.291Z,968.66
2017-09-17T07:54:03.410Z,968.64
2017-09-17T07:55:03.384Z,968.66
2017-09-17T07:56:03.790Z,968.67
2017-09-17T07:57:03.694Z,968.67
2017-09-17T07:58:03.534Z,968.66
2017-09-17T07:59:03.657Z,968.68
2017-09-17T08:00:03.634Z,968.70
2017-09-17T08:01:03.806Z,968.66
2017-09-17T08:02:03.735Z,968.68
2017-09-17T08:03:03.774Z,968.74
2017-09-17T08:04:03.910Z,968.71
2017-09-17T08:05:03.872Z,968.71
2017-09-17T08:06:04.048Z,968.73
2017-09-17T08:07:03.976Z,968.71
2017-09-17T08:08:04.024Z,968.69
2017-09-17T08:09:04.153Z,968.68
2017-09-17T08:10:04.125Z,968.70
2017-09-17T08:11:04.172Z,968.68
2017-09-17T08:12:04.217Z,968.72
2017-09-17T08:13:04.267Z,968.67
2017-09-17T08:14:04.390Z,968.64
2017-09-17T08:15:04.393Z,968.69
2017-09-17T08:16:04.442Z,968.63
2017-09-17T08:17:04.469Z,968.66
2017-09-17T08:18:04.518Z,968.65
2017-09-17T08:19:04.646Z,968.65
2017-09-17T08:20:04.613Z,968.64
2017-09-17T08:21:04.667Z,968.68
2017-09-17T08:22:04.716Z,968.69
2017-09-17T08:23:04.766Z,968.66
2017-09-17T08:24:04.905Z,968.65
2017-09-17T08:25:04.861Z,968.70
2017-09-17T08:26:04.911Z,968.66
2017-09-17T08:27:05.792Z,968.70
2017-09-17T08:28:05.032Z,968.71
2017-09-17T08:29:05.466Z,968.70
2017-09-17T08:30:05.738Z,968.70
2017-09-17T08:31:05.564Z,968.69
2017-09-17T08:32:05.427Z,968.71
2017-09-17T08:33:06.067Z,968.68
2017-09-17T08:34:05.610Z,968.67
2017-09-17T08:35:07.318Z,968.68
2017-09-17T08:36:05.650Z,968.65
2017-09-17T08:37:05.744Z,968.65
2017-09-17T08:38:06.439Z,968.63
2017-09-17T08:39:05.697Z,968.62
2017-09-17T08:40:06.742Z,968.64
2017-09-17T08:41:05.834Z,968.68
2017-09-17T08:42:05.902Z,968.68
2017-09-17T08:43:06.688Z,968.67
2017-09-17T08:44:06.633Z,968.66
2017-09-17T08:45:08.394Z,968.65
2017-09-17T08:46:06.077Z,968.66
2017-09-17T08:47:06.227Z,968.66
2017-09-17T08:48:06.384Z,968.66
2017-09-17T08:49:06.200Z,968.69
2017-09-17T08:50:07.619Z,968.68
2017-09-17T08:51:06.320Z,968.69
2017-09-17T08:52:06.718Z,968.67
2017-09-17T08:53:06.685Z,968.66
2017-09-17T08:54:06.339Z,968.69
2017-09-17T08:55:06.972Z,968.66
2017-09-17T08:56:06.434Z,968.67
2017-09-17T08:57:06.614Z,968.70
2017-09-17T08:58:06.751Z,968.70
2017-09-17T08:59:07.573Z,968.70
2017-09-17T09:00:06.782Z,968.71
2017-09-17T09:01:07.386Z,968.71
2017-09-17T09:02:06.933Z,968.69
2017-09-17T09:03:06.895Z,968.70
2017-09-17T09:04:06.971Z,968.69
2017-09-17T09:05:06.919Z,968.69
2017-09-17T09:06:07.636Z,968.70
2017-09-17T09:07:07.239Z,968.67
2017-09-17T09:08:07.589Z,968.69
2017-09-17T09:09:07.505Z,968.71
2017-09-17T09:10:07.522Z,968.72
2017-09-17T09:11:07.642Z,968.65
2017-09-17T09:12:07.310Z,968.65
2017-09-17T09:13:07.235Z,968.68
2017-09-17T09:14:07.281Z,968.66
2017-09-17T09:15:07.331Z,968.65
2017-09-17T09:16:07.456Z,968.64
2017-09-17T09:17:07.431Z,968.57
2017-09-17T09:18:07.480Z,968.57
2017-09-17T09:19:07.532Z,968.55
2017-09-17T09:20:07.583Z,968.55
2017-09-17T09:21:07.707Z,968.60
2017-09-17T09:22:07.747Z,968.59
2017-09-17T09:23:07.731Z,968.59
2017-09-17T09:24:07.782Z,968.58
2017-09-17T09:25:07.831Z,968.57
2017-09-17T09:26:07.891Z,968.56
2017-09-17T09:27:07.998Z,968.56
2017-09-17T09:28:07.981Z,968.56
2017-09-17T09:29:08.036Z,968.59
2017-09-17T09:30:08.090Z,968.56
2017-09-17T09:31:08.137Z,968.54
2017-09-17T09:32:08.252Z,968.55
2017-09-17T09:33:08.243Z,968.52
2017-09-17T09:34:08.286Z,968.49
2017-09-17T09:35:08.340Z,968.54
2017-09-17T09:36:08.393Z,968.48
2017-09-17T09:37:08.516Z,968.53
2017-09-17T09:38:08.491Z,968.53
2017-09-17T09:39:08.542Z,968.51
2017-09-17T09:40:08.600Z,968.53
2017-09-17T09:41:08.643Z,968.52
2017-09-17T09:42:08.762Z,968.50
2017-09-17T09:43:08.814Z,968.48
2017-09-17T09:44:08.798Z,968.48
2017-09-17T09:45:08.845Z,968.48
2017-09-17T09:46:08.906Z,968.48
2017-09-17T09:47:08.948Z,968.46
2017-09-17T09:48:09.074Z,968.51
2017-09-17T09:49:09.052Z,968.42
2017-09-17T09:50:09.099Z,968.48
2017-09-17T09:51:09.150Z,968.45
2017-09-17T09:52:09.201Z,968.46
2017-09-17T09:53:09.316Z,968.41
2017-09-17T09:54:09.302Z,968.42
2017-09-17T09:55:09.354Z,968.44
2017-09-17T09:56:09.401Z,968.42
2017-09-17T09:57:09.457Z,968.45
2017-09-17T09:58:09.583Z,968.43
2017-09-17T09:59:09.557Z,968.40
2017-09-17T10:00:09.609Z,968.44
2017-09-17T10:01:09.661Z,968.45
2017-09-17T10:02:09.716Z,968.43
2017-09-17T10:03:09.826Z,968.42
2017-09-17T10:04:09.883Z,968.42
2017-09-17T10:05:09.868Z,968.39
2017-09-17T10:06:09.919Z,968.43
2017-09-17T10:07:09.971Z,968.34
2017-09-17T10:08:10.023Z,968.31
2017-09-17T10:09:10.141Z,968.30
2017-09-17T10:10:10.129Z,968.27
2017-09-17T10:11:10.180Z,968.25
2017-09-17T10:12:10.230Z,968.27
2017-09-17T10:13:10.284Z,968.27
2017-09-17T10:14:10.405Z,968.34
2017-09-17T10:15:10.391Z,968.32
2017-09-17T10:16:10.442Z,968.30
2017-09-17T10:17:10.497Z,968.24
2017-09-17T10:18:10.549Z,968.22
2017-09-17T10:19:10.672Z,968.26
2017-09-17T10:20:10.654Z,968.20
2017-09-17T10:21:10.709Z,968.26
2017-09-17T10:22:10.761Z,968.25
2017-09-17T10:23:10.815Z,968.25
2017-09-17T10:24:10.930Z,968.25
2017-09-17T10:25:10.985Z,968.22
2017-09-17T10:26:10.977Z,968.21
2017-09-17T10:27:11.025Z,968.23
2017-09-17T10:28:11.090Z,968.20
2017-09-17T10:29:11.128Z,968.20
2017-09-17T10:30:11.251Z,968.13
2017-09-17T10:31:11.237Z,968.14
2017-09-17T10:32:12.009Z,968.13
2017-09-17T10:33:11.376Z,968.15
2017-09-17T10:34:11.397Z,968.13
2017-09-17T10:35:11.534Z,968.17
2017-09-17T10:36:11.503Z,968.17
2017-09-17T10:37:11.557Z,968.19
2017-09-17T10:38:11.615Z,968.16
2017-09-17T10:39:11.664Z,968.14
2017-09-17T10:40:11.791Z,968.18
2017-09-17T10:41:11.769Z,968.21
2017-09-17T10:42:11.824Z,968.16
2017-09-17T10:43:11.877Z,968.16
2017-09-17T10:44:11.931Z,968.14
2017-09-17T10:45:12.053Z,968.15
2017-09-17T10:46:12.109Z,968.14
2017-09-17T10:47:12.093Z,968.15
2017-09-17T10:48:12.153Z,968.13
2017-09-17T10:49:12.205Z,968.13
2017-09-17T10:50:12.257Z,968.17
2017-09-17T10:51:12.441Z,968.16
2017-09-17T10:52:12.365Z,968.14
2017-09-17T10:53:12.422Z,968.12
2017-09-17T10:54:12.476Z,968.13
2017-09-17T10:55:12.528Z,968.12
2017-09-17T10:56:12.646Z,968.10
2017-09-17T10:57:12.636Z,968.12
2017-09-17T10:58:12.691Z,968.11
2017-09-17T10:59:12.743Z,968.11
2017-09-17T11:00:12.797Z,968.11
2017-09-17T11:01:12.943Z,968.15
2017-09-17T11:02:12.912Z,968.03
2017-09-17T11:03:13.477Z,968.11
2017-09-17T11:04:13.015Z,968.10
2017-09-17T11:05:13.069Z,968.12
2017-09-17T11:06:13.192Z,968.10
2017-09-17T11:07:13.236Z,968.07
2017-09-17T11:08:13.230Z,968.07
2017-09-17T11:09:13.284Z,968.06
2017-09-17T11:10:13.341Z,968.08
2017-09-17T11:11:13.402Z,968.12
2017-09-17T11:12:13.518Z,968.10
2017-09-17T11:13:13.499Z,968.10
2017-09-17T11:14:13.550Z,968.10
2017-09-17T11:15:13.605Z,968.07
2017-09-17T11:16:13.659Z,968.07
2017-09-17T11:17:13.785Z,968.04
2017-09-17T11:18:13.834Z,968.08
2017-09-17T11:19:13.823Z,968.08
2017-09-17T11:20:13.871Z,967.99
2017-09-17T11:21:14.029Z,968.06
2017-09-17T11:22:14.407Z,968.03
2017-09-17T11:23:14.392Z,968.04
2017-09-17T11:24:14.322Z,968.06
2017-09-17T11:25:14.252Z,968.03
2017-09-17T11:26:14.256Z,968.01
2017-09-17T11:27:14.466Z,968.05
2017-09-17T11:28:14.971Z,968.09
2017-09-17T11:29:14.559Z,968.04
2017-09-17T11:30:15.775Z,968.01
2017-09-17T11:31:15.060Z,968.01
2017-09-17T11:32:14.524Z,968.00
2017-09-17T11:33:15.010Z,967.99
2017-09-17T11:34:14.836Z,967.95
2017-09-17T11:35:15.013Z,967.94
2017-09-17T11:36:16.289Z,967.96
2017-09-17T11:37:15.031Z,967.95
2017-09-17T11:38:15.360Z,967.94
2017-09-17T11:39:15.249Z,967.93
2017-09-17T11:40:15.147Z,967.94
2017-09-17T11:41:15.121Z,967.92
2017-09-17T11:42:15.704Z,967.96
2017-09-17T11:43:16.503Z,967.93
2017-09-17T11:44:15.194Z,967.89
2017-09-17T11:45:15.395Z,967.89
2017-09-17T11:46:15.393Z,967.90
2017-09-17T11:47:15.434Z,967.90
2017-09-17T11:48:15.604Z,967.88
2017-09-17T11:49:15.594Z,967.88
2017-09-17T11:50:15.688Z,967.89
2017-09-17T11:51:15.636Z,967.87
2017-09-17T11:52:15.826Z,967.87
2017-09-17T11:53:15.941Z,967.88
2017-09-17T11:54:15.871Z,967.89
2017-09-17T11:55:15.926Z,967.87
2017-09-17T11:56:16.020Z,967.82
2017-09-17T11:57:16.050Z,967.84
2017-09-17T11:58:16.027Z,967.83
2017-09-17T11:59:16.156Z,967.81
2017-09-17T12:00:16.266Z,967.81
2017-09-17T12:01:16.336Z,967.76
2017-09-17T12:02:16.202Z,967.78
2017-09-17T12:03:16.268Z,967.75
2017-09-17T12:04:16.668Z,967.76
2017-09-17T12:05:16.477Z,967.77
2017-09-17T12:06:16.560Z,967.73
2017-09-17T12:07:16.472Z,967.74
2017-09-17T12:08:16.608Z,967.72
2017-09-17T12:09:16.767Z,967.71
2017-09-17T12:10:16.715Z,967.69
2017-09-17T12:11:16.700Z,967.68
2017-09-17T12:12:16.828Z,967.65
2017-09-17T12:13:16.949Z,967.65
2017-09-17T12:14:17.170Z,967.67
2017-09-17T12:15:16.928Z,967.67
2017-09-17T12:16:16.910Z,967.65
2017-09-17T12:17:17.073Z,967.67
2017-09-17T12:18:17.200Z,967.65
2017-09-17T12:19:17.410Z,967.60
2017-09-17T12:20:17.268Z,967.64
2017-09-17T12:21:17.371Z,967.65
2017-09-17T12:22:17.356Z,967.62
2017-09-17T12:23:17.466Z,967.61
2017-09-17T12:24:17.433Z,967.57
2017-09-17T12:25:17.813Z,967.55
2017-09-17T12:26:17.574Z,967.61
2017-09-17T12:27:17.734Z,967.61
2017-09-17T12:28:17.576Z,967.62
2017-09-17T12:29:17.633Z,967.60